Time;durP1;ratioP1;P1;durP2;ratioP2;P2;SDS_P1;SDS_P2;PMS_P1;PMS_P2;Temp;Humidity;BMP_temperature;BMP_pressure;BME280_temperature;BME280_humidity;BME280_pressure;Samples;Min_cycle;Max_cycle;Signal;HPM_P1;HPM_P2
2022/08/31 00:06:21;;;;;;;19.00;17.20;;;;;;;14.05;100.00;99284.12;105073;1270;61490;-71
2022/08/31 00:08:47;;;;;;;16.70;15.10;;;;;;;14.03;100.00;99282.66;105086;1271;61447;-71
2022/08/31 00:11:15;;;;;;;17.60;15.70;;;;;;;14.00;100.00;99278.61;105082;1270;61369;-71
2022/08/31 00:13:42;;;;;;;18.60;16.20;;;;;;;13.98;100.00;99279.98;105150;1271;68679;-71
2022/08/31 00:16:11;;;;;;;17.70;16.00;;;;;;;13.96;100.00;99274.41;104901;1271;73082;-70
2022/08/31 00:18:38;;;;;;;17.60;15.80;;;;;;;13.95;100.00;99275.21;105156;1270;61325;-71
2022/08/31 00:21:04;;;;;;;17.40;15.70;;;;;;;13.93;100.00;99276.27;105101;1270;62074;-70
2022/08/31 00:23:30;;;;;;;18.40;15.50;;;;;;;13.92;100.00;99274.96;105106;1270;61369;-70
2022/08/31 00:25:56;;;;;;;16.20;14.60;;;;;;;13.90;100.00;99272.96;105094;1270;61350;-71
2022/08/31 00:28:22;;;;;;;16.60;15.00;;;;;;;13.87;100.00;99275.45;105088;1270;61295;-69
2022/08/31 00:30:49;;;;;;;16.50;15.00;;;;;;;13.85;100.00;99275.62;105015;1270;61341;-70
2022/08/31 00:33:15;;;;;;;17.10;15.30;;;;;;;13.84;100.00;99275.71;105098;1270;61311;-70
2022/08/31 00:35:42;;;;;;;16.00;14.30;;;;;;;13.80;100.00;99274.77;105081;1270;61252;-70
2022/08/31 00:38:10;;;;;;;16.70;14.70;;;;;;;13.75;100.00;99275.26;105067;1271;61308;-70
2022/08/31 00:40:37;;;;;;;19.00;14.70;;;;;;;13.72;100.00;99275.19;105026;1270;73405;-70
2022/08/31 00:43:03;;;;;;;17.10;14.70;;;;;;;13.70;100.00;99276.98;104976;1271;61262;-70
2022/08/31 00:45:29;;;;;;;14.00;12.70;;;;;;;13.66;100.00;99277.40;104968;1270;61390;-71
2022/08/31 00:47:55;;;;;;;13.20;11.90;;;;;;;13.66;100.00;99275.13;105007;1270;61371;-71
2022/08/31 00:50:23;;;;;;;13.60;12.20;;;;;;;13.66;100.00;99276.69;105107;1270;61253;-70
2022/08/31 00:52:55;;;;;;;13.10;11.90;;;;;;;13.66;100.00;99275.64;104960;1271;74787;-69
2022/08/31 00:55:27;;;;;;;12.80;11.60;;;;;;;13.66;100.00;99278.85;105027;1270;61313;-70
2022/08/31 00:57:58;;;;;;;18.70;13.30;;;;;;;13.65;100.00;99279.30;105078;1271;61279;-72
2022/08/31 01:00:26;;;;;;;14.00;12.60;;;;;;;13.61;100.00;99279.04;105062;1270;76372;-70
2022/08/31 01:02:54;;;;;;;14.60;13.20;;;;;;;13.57;100.00;99274.88;105170;1270;70799;-69
2022/08/31 01:05:20;;;;;;;14.00;12.50;;;;;;;13.53;100.00;99281.22;104830;1271;73192;-70
2022/08/31 01:07:49;;;;;;;14.00;12.70;;;;;;;13.51;100.00;99282.80;104778;1274;61328;-70
2022/08/31 01:10:19;;;;;;;13.60;12.20;;;;;;;13.47;100.00;99283.48;105092;1270;62234;-70
2022/08/31 01:12:46;;;;;;;;;;;;;;;13.44;100.00;99285.64;104885;1271;75324;-70
2022/08/31 01:15:14;;;;;;;15.60;12.60;;;;;;;13.40;100.00;99283.33;104863;1271;70360;-70
2022/08/31 01:17:43;;;;;;;14.50;13.00;;;;;;;13.36;100.00;99283.02;105184;1270;73422;-70
2022/08/31 01:20:23;;;;;;;13.70;12.30;;;;;;;13.34;100.00;99282.09;105079;1270;61211;-70
2022/08/31 01:23:29;;;;;;;14.50;13.10;;;;;;;13.32;100.00;99279.79;104893;1271;61421;-71
2022/08/31 01:25:57;;;;;;;15.70;13.50;;;;;;;13.26;100.00;99278.58;105079;1270;76360;-70
2022/08/31 01:28:24;;;;;;;15.10;13.50;;;;;;;13.23;100.00;99282.16;105088;1270;70249;-70
2022/08/31 01:31:08;;;;;;;14.50;13.20;;;;;;;13.21;100.00;99282.14;104949;1271;72420;-70
2022/08/31 01:33:37;;;;;;;14.30;12.80;;;;;;;13.17;100.00;99281.33;105095;1270;61383;-71
2022/08/31 01:36:04;;;;;;;15.80;12.60;;;;;;;13.14;100.00;99275.66;105078;1270;61301;-70
2022/08/31 01:38:33;;;;;;;15.20;12.40;;;;;;;13.11;100.00;99274.66;104996;1271;76397;-69
2022/08/31 01:41:01;;;;;;;14.20;12.80;;;;;;;13.08;100.00;99272.21;105118;1270;70300;-71
2022/08/31 01:43:28;;;;;;;13.80;12.50;;;;;;;13.06;100.00;99276.80;105030;1271;74455;-71
2022/08/31 01:45:54;;;;;;;13.80;12.50;;;;;;;13.04;100.00;99281.60;105066;1270;61280;-71
2022/08/31 01:48:21;;;;;;;13.40;11.90;;;;;;;13.03;100.00;99279.33;105106;1271;61891;-70
2022/08/31 01:50:48;;;;;;;13.40;12.00;;;;;;;13.02;100.00;99282.83;105080;1271;76687;-69
2022/08/31 01:53:14;;;;;;;14.70;13.00;;;;;;;13.01;100.00;99283.95;105082;1270;61362;-70
2022/08/31 01:55:40;;;;;;;13.60;12.20;;;;;;;13.01;100.00;99280.95;105086;1271;61317;-71
2022/08/31 01:58:07;;;;;;;13.50;12.00;;;;;;;12.99;100.00;99280.55;104882;1273;61383;-70
2022/08/31 02:00:59;;;;;;;13.30;12.00;;;;;;;12.98;100.00;99279.39;105093;1270;61272;-70
2022/08/31 02:03:25;;;;;;;14.00;12.60;;;;;;;12.95;100.00;99277.95;104929;1271;76891;-70
2022/08/31 02:05:51;;;;;;;11.50;10.20;;;;;;;12.93;100.00;99277.37;105148;1271;61394;-70
2022/08/31 02:08:17;;;;;;;11.30;10.20;;;;;;;12.93;100.00;99275.80;105040;1271;61358;-71
2022/08/31 02:10:44;;;;;;;10.60;9.60;;;;;;;12.91;100.00;99274.70;104953;1271;61357;-70
2022/08/31 02:13:11;;;;;;;10.30;9.30;;;;;;;12.89;100.00;99275.90;105060;1271;61363;-70
2022/08/31 02:15:38;;;;;;;10.80;9.70;;;;;;;12.87;100.00;99277.08;105088;1271;76627;-70
2022/08/31 02:18:05;;;;;;;9.60;8.60;;;;;;;12.87;100.00;99270.86;105091;1271;61384;-70
2022/08/31 02:20:31;;;;;;;11.60;9.70;;;;;;;12.86;100.00;99268.95;105124;1271;73333;-70
2022/08/31 02:22:57;;;;;;;10.90;9.80;;;;;;;12.85;100.00;99269.03;105081;1271;61304;-70
2022/08/31 02:25:23;;;;;;;9.70;8.70;;;;;;;12.84;100.00;99268.98;104991;1271;61474;-70
2022/08/31 02:27:49;;;;;;;10.40;9.20;;;;;;;12.81;100.00;99269.23;105046;1271;61372;-70
2022/08/31 02:30:18;;;;;;;9.30;8.40;;;;;;;12.77;100.00;99266.97;105048;1271;61401;-70
2022/08/31 02:32:44;;;;;;;9.90;8.70;;;;;;;12.71;100.00;99266.27;104972;1271;73799;-70
2022/08/31 02:35:10;;;;;;;9.70;8.80;;;;;;;12.66;100.00;99269.67;105109;1271;61420;-70
2022/08/31 02:37:37;;;;;;;8.70;7.80;;;;;;;12.61;100.00;99269.34;104896;1270;61627;-71
2022/08/31 02:40:07;;;;;;;9.60;8.60;;;;;;;12.56;100.00;99268.61;105060;1271;61155;-70
2022/08/31 02:42:33;;;;;;;;;;;;;;;12.52;100.00;99270.84;105139;1271;70209;-70
2022/08/31 02:45:00;;;;;;;12.30;8.80;;;;;;;12.48;100.00;99269.52;105038;1271;61743;-71
2022/08/31 02:47:29;;;;;;;9.50;8.60;;;;;;;12.44;100.00;99270.91;104976;1271;61292;-71
2022/08/31 02:49:55;;;;;;;10.00;9.00;;;;;;;12.38;100.00;99274.71;105017;1270;61799;-72
2022/08/31 02:52:21;;;;;;;11.10;8.80;;;;;;;12.31;100.00;99276.23;105073;1271;61406;-72
2022/08/31 02:54:47;;;;;;;10.00;9.10;;;;;;;12.25;100.00;99279.66;105063;1271;61260;-72
2022/08/31 02:57:13;;;;;;;9.00;8.10;;;;;;;12.19;100.00;99277.80;104972;1271;61321;-71
2022/08/31 02:59:39;;;;;;;11.50;9.60;;;;;;;12.13;100.00;99275.38;105010;1271;61393;-72
2022/08/31 03:02:05;;;;;;;10.50;9.40;;;;;;;12.12;100.00;99278.52;105092;1271;61339;-71
2022/08/31 03:04:31;;;;;;;10.20;9.10;;;;;;;12.08;100.00;99277.16;104923;1274;62915;-71
2022/08/31 03:06:57;;;;;;;10.00;9.10;;;;;;;12.04;100.00;99277.05;105066;1271;61260;-72
2022/08/31 03:09:23;;;;;;;11.20;10.10;;;;;;;12.03;100.00;99276.73;104891;1272;61416;-70
2022/08/31 03:11:49;;;;;;;12.50;9.60;;;;;;;12.04;100.00;99270.31;105076;1271;61355;-71
2022/08/31 03:14:16;;;;;;;10.30;9.30;;;;;;;12.03;100.00;99269.25;104670;1274;61286;-70
2022/08/31 03:16:42;;;;;;;10.70;9.20;;;;;;;12.03;100.00;99266.77;105103;1271;61388;-70
2022/08/31 03:19:08;;;;;;;9.10;8.30;;;;;;;12.02;100.00;99267.01;105109;1271;61378;-71
2022/08/31 03:21:34;;;;;;;11.30;8.50;;;;;;;12.02;100.00;99266.14;105130;1270;61234;-70
2022/08/31 03:24:00;;;;;;;11.30;9.70;;;;;;;12.01;100.00;99265.87;105097;1271;61294;-70
2022/08/31 03:26:26;;;;;;;11.60;10.00;;;;;;;12.00;100.00;99267.36;105026;1271;61413;-71
2022/08/31 03:28:54;;;;;;;11.50;10.30;;;;;;;12.01;100.00;99264.47;104948;1270;61320;-70
2022/08/31 03:31:22;;;;;;;12.20;10.80;;;;;;;12.01;100.00;99269.59;104952;1271;61255;-70
2022/08/31 03:33:48;;;;;;;12.30;11.10;;;;;;;12.00;100.00;99268.77;105089;1271;61376;-70
2022/08/31 03:36:17;;;;;;;12.60;10.70;;;;;;;12.01;100.00;99275.32;104962;1271;61464;-71
2022/08/31 03:38:43;;;;;;;12.50;11.20;;;;;;;12.02;100.00;99280.41;105140;1271;75471;-70
2022/08/31 03:41:12;;;;;;;12.50;11.20;;;;;;;12.03;100.00;99281.77;104763;1272;61475;-70
2022/08/31 03:43:38;;;;;;;11.60;10.50;;;;;;;12.04;100.00;99278.46;104934;1274;74412;-71
2022/08/31 03:46:04;;;;;;;12.20;11.00;;;;;;;12.06;100.00;99276.94;105076;1271;61496;-71
2022/08/31 03:48:30;;;;;;;14.60;13.20;;;;;;;12.09;100.00;99277.59;105110;1271;61420;-69
2022/08/31 03:50:56;;;;;;;15.00;12.60;;;;;;;12.10;100.00;99274.34;105068;1270;61332;-69
2022/08/31 03:53:22;;;;;;;14.30;13.00;;;;;;;12.12;100.00;99273.48;105094;1270;61354;-70
2022/08/31 03:55:48;;;;;;;15.20;13.20;;;;;;;12.14;100.00;99273.35;104821;1272;61378;-71
2022/08/31 03:58:15;;;;;;;15.80;14.10;;;;;;;12.15;100.00;99279.01;105069;1271;61364;-71
2022/08/31 04:00:43;;;;;;;15.60;14.00;;;;;;;12.17;100.00;99278.52;105076;1271;61295;-69
2022/08/31 04:03:09;;;;;;;14.30;12.80;;;;;;;12.18;100.00;99279.51;105252;1271;61286;-70
2022/08/31 04:05:41;;;;;;;15.70;13.90;;;;;;;12.19;100.00;99276.91;105068;1271;61403;-69
2022/08/31 04:08:07;;;;;;;14.10;12.70;;;;;;;12.21;100.00;99278.38;105080;1271;73174;-70
2022/08/31 04:10:34;;;;;;;12.80;11.70;;;;;;;12.23;100.00;99279.34;105058;1270;61391;-70
2022/08/31 04:13:00;;;;;;;12.00;11.00;;;;;;;12.25;100.00;99280.38;105067;1270;61269;-70
2022/08/31 04:15:26;;;;;;;10.70;9.70;;;;;;;12.28;100.00;99284.85;105090;1270;61478;-70
2022/08/31 04:17:52;;;;;;;14.30;12.80;;;;;;;12.38;100.00;99283.05;105077;1270;61362;-70
2022/08/31 04:20:18;;;;;;;13.00;11.80;;;;;;;12.75;100.00;99287.40;105081;1271;61374;-70
2022/08/31 04:22:44;;;;;;;10.10;9.20;;;;;;;13.19;100.00;99281.77;105101;1271;61304;-71
2022/08/31 04:25:10;;;;;;;11.60;10.40;;;;;;;13.60;100.00;99279.42;105080;1271;61483;-70
2022/08/31 04:27:37;;;;;;;11.00;10.00;;;;;;;14.01;100.00;99281.06;105068;1270;61301;-70
2022/08/31 04:30:06;;;;;;;8.30;7.60;;;;;;;14.40;100.00;99280.16;105078;1271;61367;-69
2022/08/31 04:32:32;;;;;;;7.20;6.60;;;;;;;14.73;100.00;99275.99;105185;1270;61302;-70
2022/08/31 04:35:00;;;;;;;7.90;7.00;;;;;;;15.04;100.00;99274.76;105095;1270;61401;-70
2022/08/31 04:37:27;;;;;;;8.50;7.70;;;;;;;15.43;100.00;99273.67;105019;1270;61288;-70
2022/08/31 04:39:54;;;;;;;10.10;7.90;;;;;;;15.80;100.00;99269.77;104906;1271;76656;-70
2022/08/31 04:42:20;;;;;;;9.60;8.60;;;;;;;15.91;100.00;99270.65;105129;1270;69228;-70
2022/08/31 04:44:46;;;;;;;12.50;10.50;;;;;;;15.95;100.00;99271.36;105061;1271;61345;-70
2022/08/31 04:47:12;;;;;;;13.30;11.00;;;;;;;16.36;100.00;99275.03;104735;1270;61595;-70
2022/08/31 04:49:38;;;;;;;11.90;10.80;;;;;;;16.83;100.00;99274.17;105075;1271;61419;-70
2022/08/31 04:52:05;;;;;;;11.70;9.90;;;;;;;17.08;100.00;99285.27;104965;1270;61311;-70
2022/08/31 04:54:31;;;;;;;13.20;9.70;;;;;;;17.25;100.00;99290.52;105080;1270;61426;-71
2022/08/31 04:56:58;;;;;;;14.40;9.70;;;;;;;17.42;100.00;99292.27;105042;1270;61432;-71
2022/08/31 04:59:26;;;;;;;11.00;9.50;;;;;;;17.17;100.00;99299.00;104895;1273;61345;-71
2022/08/31 05:01:52;;;;;;;11.70;9.20;;;;;;;17.10;100.00;99303.51;105189;1270;61368;-71
2022/08/31 05:04:22;;;;;;;11.90;9.50;;;;;;;17.03;100.00;99306.52;105071;1270;61374;-70
2022/08/31 05:06:49;;;;;;;10.80;9.20;;;;;;;17.15;100.00;99305.46;105076;1270;70361;-70
2022/08/31 05:09:19;;;;;;;9.30;7.80;;;;;;;17.14;100.00;99307.92;105097;1270;73764;-70
2022/08/31 05:11:46;;;;;;;;;;;;;;;17.07;100.00;99304.16;105093;1270;61266;-70
2022/08/31 05:14:12;;;;;;;10.50;7.80;;;;;;;16.98;100.00;99308.18;105062;1270;61110;-70
2022/08/31 05:16:39;;;;;;;10.80;6.90;;;;;;;17.04;100.00;99308.56;104954;1272;61372;-71
2022/08/31 05:19:06;;;;;;;9.70;6.60;;;;;;;17.21;100.00;99316.00;105180;1270;68616;-70
2022/08/31 05:21:35;;;;;;;9.80;6.30;;;;;;;17.04;100.00;99317.39;104986;1270;61281;-71
2022/08/31 05:24:11;;;;;;;10.70;6.50;;;;;;;16.87;100.00;99317.23;105151;1270;61282;-71
2022/08/31 05:26:43;;;;;;;12.20;7.20;;;;;;;16.86;100.00;99318.95;105058;1270;61272;-71
2022/08/31 05:29:12;;;;;;;9.30;7.30;;;;;;;16.92;100.00;99316.09;105092;1271;74249;-70
2022/08/31 05:31:40;;;;;;;9.80;7.00;;;;;;;17.39;100.00;99313.68;105109;1270;69512;-72
2022/08/31 05:34:06;;;;;;;16.20;8.30;;;;;;;17.66;100.00;99303.15;105127;1270;74491;-71
2022/08/31 05:36:34;;;;;;;11.30;8.30;;;;;;;17.66;100.00;99304.04;105049;1270;61249;-70
2022/08/31 05:39:00;;;;;;;11.90;9.40;;;;;;;17.71;100.00;99307.59;105047;1270;61359;-71
2022/08/31 05:41:29;;;;;;;10.20;8.70;;;;;;;17.81;100.00;99306.31;105213;1270;76308;-71
2022/08/31 05:43:55;;;;;;;11.60;9.90;;;;;;;17.91;100.00;99309.35;105130;1270;70400;-70
2022/08/31 05:46:21;;;;;;;10.70;9.50;;;;;;;17.97;100.00;99306.83;104991;1270;61343;-70
2022/08/31 05:48:47;;;;;;;10.20;9.10;;;;;;;18.03;100.00;99305.02;105009;1270;61395;-70
2022/08/31 05:51:16;;;;;;;10.40;9.20;;;;;;;18.08;100.00;99312.80;105088;1270;61393;-70
2022/08/31 05:53:43;;;;;;;10.20;8.40;;;;;;;18.18;100.00;99315.10;105156;1270;75357;-71
2022/08/31 05:56:15;;;;;;;9.50;7.80;;;;;;;18.25;100.00;99319.00;105082;1270;70480;-71
2022/08/31 05:58:43;;;;;;;9.40;8.30;;;;;;;18.25;100.00;99315.92;104993;1270;73457;-70
2022/08/31 06:01:22;;;;;;;9.90;9.00;;;;;;;18.32;100.00;99315.79;105123;1270;61260;-71
2022/08/31 06:03:50;;;;;;;7.80;7.10;;;;;;;18.43;100.00;99318.92;105114;1270;61288;-71
2022/08/31 06:06:16;;;;;;;6.50;5.90;;;;;;;18.57;100.00;99321.48;105114;1270;75464;-70
2022/08/31 06:08:42;;;;;;;7.40;6.30;;;;;;;18.67;100.00;99326.36;105031;1270;61291;-71
2022/08/31 06:11:18;;;;;;;6.80;6.20;;;;;;;18.75;100.00;99329.33;104836;1272;61653;-72
2022/08/31 06:13:47;;;;;;;8.30;6.10;;;;;;;18.96;100.00;99324.11;105107;1270;61369;-70
2022/08/31 06:16:13;;;;;;;6.20;5.50;;;;;;;19.31;100.00;99328.58;105016;1271;61295;-70
2022/08/31 06:18:40;;;;;;;5.80;5.30;;;;;;;19.58;100.00;99330.14;105163;1270;75460;-71
2022/08/31 06:21:11;;;;;;;6.20;5.50;;;;;;;19.90;100.00;99328.98;103918;1270;1507580;-72
2022/08/31 06:23:41;;;;;;;5.90;5.40;;;;;;;20.35;100.00;99330.52;105046;1270;72804;-70
2022/08/31 06:26:14;;;;;;;5.10;4.70;;;;;;;20.78;100.00;99333.85;105265;1270;61405;-71
2022/08/31 06:28:42;;;;;;;5.40;4.90;;;;;;;21.06;100.00;99335.21;105045;1270;61224;-71
2022/08/31 06:31:25;;;;;;;5.90;5.20;;;;;;;21.24;100.00;99337.54;105064;1271;75624;-72
2022/08/31 06:33:51;;;;;;;5.50;4.80;;;;;;;21.34;100.00;99335.21;105049;1270;67840;-71
2022/08/31 06:36:20;;;;;;;5.00;4.60;;;;;;;21.42;100.00;99336.70;104800;1271;61304;-70
2022/08/31 06:38:47;;;;;;;5.10;4.60;;;;;;;21.51;100.00;99335.81;105054;1270;61199;-72
2022/08/31 06:41:20;;;;;;;5.80;5.30;;;;;;;21.55;100.00;99337.76;105036;1270;61325;-73
2022/08/31 06:43:48;;;;;;;11.80;5.40;;;;;;;21.41;100.00;99335.77;105103;1270;75487;-71
2022/08/31 06:46:16;;;;;;;7.60;5.10;;;;;;;21.25;100.00;99338.33;105036;1270;70481;-71
2022/08/31 06:48:43;;;;;;;5.00;4.60;;;;;;;21.14;100.00;99341.02;105044;1270;74455;-71
2022/08/31 06:51:09;;;;;;;5.70;5.10;;;;;;;21.13;100.00;99339.96;105017;1270;61259;-70
2022/08/31 06:53:39;;;;;;;4.50;4.10;;;;;;;21.12;100.00;99341.86;105081;1270;61291;-69
2022/08/31 06:56:07;;;;;;;6.30;5.50;;;;;;;21.09;100.00;99344.70;105028;1270;76487;-70
2022/08/31 06:58:33;;;;;;;6.90;5.20;;;;;;;21.08;100.00;99349.76;105102;1270;70770;-70
2022/08/31 07:01:12;;;;;;;6.70;5.70;;;;;;;21.11;100.00;99343.61;105093;1270;74431;-70
2022/08/31 07:03:42;;;;;;;10.90;6.10;;;;;;;20.71;100.00;99348.16;105169;1270;61275;-71
2022/08/31 07:06:12;;;;;;;10.00;7.50;;;;;;;20.42;100.00;99348.91;105143;1270;61475;-70
2022/08/31 07:08:40;;;;;;;12.30;8.80;;;;;;;20.07;100.00;99357.19;104995;1270;76392;-71
2022/08/31 07:11:28;;;;;;;9.40;8.50;;;;;;;19.95;100.00;99358.02;105087;1270;70422;-70
2022/08/31 07:13:55;;;;;;;10.10;9.10;;;;;;;19.98;100.00;99355.59;105081;1270;72727;-72
2022/08/31 07:16:24;;;;;;;10.00;9.10;;;;;;;19.92;100.00;99362.11;105093;1270;61942;-70
2022/08/31 07:18:52;;;;;;;13.30;11.70;;;;;;;19.87;100.00;99365.13;105159;1270;61355;-71
2022/08/31 07:21:26;;;;;;;15.00;13.60;;;;;;;19.86;100.00;99364.38;105117;1270;76354;-71
2022/08/31 07:23:55;;;;;;;11.80;10.60;;;;;;;19.96;100.00;99362.30;105118;1269;69719;-71
2022/08/31 07:26:32;;;;;;;9.90;8.90;;;;;;;20.07;100.00;99362.58;105162;1270;74169;-71
2022/08/31 07:29:00;;;;;;;10.90;8.60;;;;;;;19.96;100.00;99368.96;104995;1270;61298;-71
2022/08/31 07:31:39;;;;;;;8.70;7.90;;;;;;;19.90;100.00;99367.35;105065;1270;62139;-70
2022/08/31 07:34:09;;;;;;;9.50;8.60;;;;;;;20.02;100.00;99367.27;105118;1270;75317;-71
2022/08/31 07:42:08;;;;;;;10.20;9.30;;;;;;;20.07;100.00;99370.36;105164;1270;69326;-71
2022/08/31 07:42:09;;;;;;;8.50;7.30;;;;;;;20.20;100.00;99374.64;105067;1270;61369;-72
2022/08/31 07:44:38;;;;;;;5.40;4.90;;;;;;;20.39;100.00;99373.94;105108;1270;61180;-71
2022/08/31 07:47:04;;;;;;;5.40;4.90;;;;;;;20.57;100.00;99380.30;105150;1270;76552;-69
2022/08/31 07:49:30;;;;;;;5.40;4.70;;;;;;;20.70;100.00;99378.07;105290;1270;61427;-70
2022/08/31 07:51:57;;;;;;;5.60;4.10;;;;;;;20.86;100.00;99378.05;104966;1271;61448;-71
2022/08/31 07:54:28;;;;;;;5.30;4.20;;;;;;;20.96;100.00;99374.80;105111;1270;61211;-71
2022/08/31 07:57:02;;;;;;;4.30;4.00;;;;;;;21.08;100.00;99372.70;105116;1270;61289;-71
2022/08/31 07:59:36;;;;;;;5.50;3.40;;;;;;;21.27;100.00;99373.03;105129;1270;75813;-71
2022/08/31 08:02:02;;;;;;;24.10;4.70;;;;;;;21.48;100.00;99371.76;104992;1270;69485;-71
2022/08/31 08:04:29;;;;;;;3.50;2.40;;;;;;;21.60;100.00;99374.73;105055;1270;61375;-71
2022/08/31 08:06:59;;;;;;;3.00;2.50;;;;;;;21.66;100.00;99379.70;105100;1270;61272;-71
2022/08/31 08:09:27;;;;;;;5.80;2.50;;;;;;;21.84;100.00;99377.45;105139;1270;62216;-71
2022/08/31 08:11:56;;;;;;;3.80;2.80;;;;;;;22.00;100.00;99380.78;105144;1270;75363;-70
2022/08/31 08:14:24;;;;;;;5.70;2.80;;;;;;;22.01;100.00;99378.64;104978;1270;69351;-71
2022/08/31 08:16:51;;;;;;;7.00;2.60;;;;;;;22.10;100.00;99372.82;105093;1270;73549;-71
2022/08/31 08:19:17;;;;;;;5.30;2.70;;;;;;;22.02;100.00;99382.72;105085;1270;61327;-71
2022/08/31 08:21:44;;;;;;;5.50;2.70;;;;;;;21.87;100.00;99383.02;105125;1270;61387;-71
2022/08/31 08:24:12;;;;;;;4.80;2.90;;;;;;;21.93;100.00;99384.13;105124;1270;75394;-71
2022/08/31 08:26:45;;;;;;;2.80;2.40;;;;;;;21.95;100.00;99382.05;105121;1270;69279;-70
2022/08/31 08:29:11;;;;;;;3.00;2.20;;;;;;;22.02;100.00;99384.52;105099;1270;74479;-71
2022/08/31 08:31:37;;;;;;;5.30;2.50;;;;;;;22.12;100.00;99380.43;105087;1270;61390;-71
2022/08/31 08:34:05;;;;;;;3.70;2.00;;;;;;;22.13;100.00;99384.77;104888;1270;61356;-71
2022/08/31 08:36:39;;;;;;;4.50;2.10;;;;;;;22.13;100.00;99387.35;105131;1270;75424;-70
2022/08/31 08:39:08;;;;;;;3.70;2.20;;;;;;;22.23;100.00;99387.76;105092;1270;70597;-70
2022/08/31 08:41:37;;;;;;;4.80;2.60;;;;;;;22.20;100.00;99388.38;104913;1270;74180;-70
2022/08/31 08:44:08;;;;;;;2.80;2.40;;;;;;;22.19;100.00;99387.42;105062;1270;61204;-70
2022/08/31 08:46:49;;;;;;;4.60;2.30;;;;;;;22.21;100.00;99391.23;105120;1270;62014;-73
2022/08/31 08:49:32;;;;;;;2.20;2.00;;;;;;;22.20;100.00;99388.38;105127;1270;75286;-73
2022/08/31 08:52:03;;;;;;;4.80;2.00;;;;;;;22.19;100.00;99386.88;105088;1270;70247;-73
2022/08/31 08:54:36;;;;;;;3.80;2.40;;;;;;;22.15;100.00;99378.26;105282;1270;74815;-71
2022/08/31 08:57:12;;;;;;;4.00;2.50;;;;;;;22.17;100.00;99378.98;105155;1270;61281;-71
2022/08/31 08:59:44;;;;;;;3.80;2.30;;;;;;;22.05;100.00;99386.55;105105;1270;61179;-72
2022/08/31 09:02:20;;;;;;;4.40;2.40;;;;;;;21.90;100.00;99383.98;105093;1270;76710;-72
2022/08/31 09:05:13;;;;;;;2.90;2.70;;;;;;;21.75;100.00;99378.98;104967;1270;70164;-72
2022/08/31 09:07:46;;;;;;;4.30;2.00;;;;;;;21.69;100.00;99379.91;105077;1270;73295;-74
2022/08/31 09:11:16;;;;;;;4.70;2.00;;;;;;;21.59;100.00;99372.14;105086;1270;61393;-72
2022/08/31 09:13:48;;;;;;;4.10;2.10;;;;;;;21.52;100.00;99369.84;103926;1284;62066;-73
2022/08/31 09:16:46;;;;;;;5.10;2.10;;;;;;;21.54;100.00;99370.91;104006;1284;76556;-72
2022/08/31 09:19:16;;;;;;;4.70;2.20;;;;;;;21.54;100.00;99367.83;103943;1284;69400;-71
2022/08/31 09:21:56;;;;;;;3.90;1.90;;;;;;;21.49;100.00;99365.64;103967;1284;74599;-73
2022/08/31 09:24:29;;;;;;;4.80;1.90;;;;;;;21.47;100.00;99364.72;103925;1284;61298;-71
2022/08/31 09:27:18;;;;;;;3.40;2.20;;;;;;;21.52;100.00;99363.55;103986;1284;61911;-71
2022/08/31 09:29:53;;;;;;;5.00;2.70;;;;;;;21.53;100.00;99362.19;103930;1284;75406;-72
2022/08/31 09:32:33;;;;;;;3.40;2.10;;;;;;;21.50;100.00;99355.74;103571;1286;67847;-71
2022/08/31 09:35:39;;;;;;;3.00;2.20;;;;;;;21.62;100.00;99356.84;103897;1284;73155;-71
2022/08/31 09:38:15;;;;;;;2.90;2.10;;;;;;;21.64;100.00;99356.23;103741;1286;61437;-72
2022/08/31 09:40:46;;;;;;;4.00;1.80;;;;;;;21.64;100.00;99354.27;104011;1284;61298;-72
2022/08/31 09:43:24;;;;;;;2.70;1.80;;;;;;;21.61;100.00;99349.71;103966;1284;75154;-71
2022/08/31 09:45:59;;;;;;;2.10;1.80;;;;;;;21.65;100.00;99347.21;104021;1284;69432;-73
2022/08/31 09:48:50;;;;;;;4.60;1.70;;;;;;;21.68;100.00;99344.24;103922;1283;73065;-72
2022/08/31 09:51:19;;;;;;;3.40;1.80;;;;;;;21.78;100.00;99340.98;104893;1270;61300;-71
2022/08/31 09:56:51;;;;;;;3.90;2.10;;;;;;;21.76;100.00;99340.77;105080;1270;75929;-71
2022/08/31 09:59:27;;;;;;;5.20;2.20;;;;;;;21.72;100.00;99342.42;105130;1270;69387;-72
2022/08/31 10:01:59;;;;;;;4.40;1.60;;;;;;;21.74;100.00;99346.19;105082;1269;73500;-70
2022/08/31 10:04:31;;;;;;;2.30;1.60;;;;;;;21.76;100.00;99348.84;105130;1270;61463;-72
2022/08/31 10:07:16;;;;;;;2.60;1.80;;;;;;;21.83;100.00;99345.13;105056;1270;61965;-72
2022/08/31 10:09:51;;;;;;;3.10;1.90;;;;;;;21.90;100.00;99344.27;105114;1267;75406;-73
2022/08/31 10:12:36;;;;;;;1.60;1.30;;;;;;;21.93;100.00;99343.20;105177;1270;70302;-71
2022/08/31 10:15:09;;;;;;;3.30;1.80;;;;;;;21.93;100.00;99340.63;105102;1270;73291;-72
2022/08/31 10:17:44;;;;;;;1.90;1.70;;;;;;;22.00;100.00;99341.39;105120;1270;61283;-70
2022/08/31 10:20:25;;;;;;;2.60;1.90;;;;;;;22.01;100.00;99336.88;105123;1270;61196;-72
2022/08/31 10:23:03;;;;;;;2.90;1.60;;;;;;;22.00;100.00;99336.14;105172;1270;74743;-73
2022/08/31 10:25:45;;;;;;;3.10;1.70;;;;;;;22.00;100.00;99334.07;105177;1270;69485;-72
2022/08/31 10:28:19;;;;;;;2.60;1.90;;;;;;;22.05;100.00;99333.80;105102;1270;74269;-73
2022/08/31 10:30:56;;;;;;;3.30;1.90;;;;;;;22.11;100.00;99333.73;105109;1270;61218;-73
2022/08/31 10:35:01;;;;;;;3.50;1.90;;;;;;;22.24;100.00;99330.07;105107;1270;61733;-71
2022/08/31 10:36:15;;;;;;;2.70;1.90;;;;;;;22.41;100.00;99329.09;105073;1270;76373;-72
2022/08/31 10:38:45;;;;;;;2.10;1.90;;;;;;;22.47;100.00;99322.57;105034;1270;61322;-73
2022/08/31 10:41:26;;;;;;;2.40;2.20;;;;;;;22.45;100.00;99321.17;105139;1270;74408;-72
2022/08/31 10:44:16;;;;;;;3.40;2.10;;;;;;;22.54;100.00;99319.27;104980;1271;61315;-72
2022/08/31 10:46:44;;;;;;;4.10;2.30;;;;;;;22.69;100.00;99317.68;105156;1270;61215;-72
2022/08/31 10:49:11;;;;;;;5.50;2.10;;;;;;;22.74;100.00;99319.38;105003;1270;75154;-72
2022/08/31 10:52:09;;;;;;;2.40;2.00;;;;;;;22.89;100.00;99321.69;104900;1271;70328;-74
2022/08/31 10:54:46;;;;;;;3.10;1.80;;;;;;;22.76;100.00;99324.02;105082;1270;74233;-74
2022/08/31 10:57:38;;;;;;;7.20;2.20;;;;;;;22.62;100.00;99326.41;105064;1270;61282;-71
2022/08/31 11:03:21;;;;;;;2.00;1.50;;;;;;;22.71;100.00;99334.02;104480;1277;75493;-72
2022/08/31 11:06:09;;;;;;;3.50;2.00;;;;;;;22.74;100.00;99326.67;104470;1277;70350;-73
2022/08/31 11:08:52;;;;;;;3.00;1.90;;;;;;;22.73;100.00;99325.34;104587;1277;73843;-72
2022/08/31 11:11:44;;;;;;;2.50;1.80;;;;;;;22.53;100.00;99319.95;104533;1277;61410;-72
2022/08/31 11:14:32;;;;;;;2.20;1.60;;;;;;;22.35;100.00;99328.45;104519;1278;61205;-72
2022/08/31 11:17:17;;;;;;;3.70;1.60;;;;;;;22.26;100.00;99320.63;104459;1277;74392;-71
2022/08/31 11:19:49;;;;;;;3.90;1.60;;;;;;;22.26;100.00;99320.64;104477;1277;70579;-71
2022/08/31 11:23:06;;;;;;;3.60;1.60;;;;;;;22.29;100.00;99317.02;104416;1279;73251;-71
2022/08/31 11:25:46;;;;;;;1.50;1.30;;;;;;;22.23;100.00;99314.06;103944;1284;60680;-71
2022/08/31 11:28:33;;;;;;;2.30;1.60;;;;;;;22.25;100.00;99310.21;103924;1284;61896;-71
2022/08/31 11:31:05;;;;;;;5.10;1.50;;;;;;;22.35;100.00;99310.42;103944;1284;76514;-71
2022/08/31 11:33:31;;;;;;;1.90;1.00;;;;;;;22.45;100.00;99307.11;104019;1284;70661;-71
2022/08/31 11:36:07;;;;;;;2.00;1.60;;;;;;;22.53;100.00;99309.62;103980;1284;61480;-71
2022/08/31 11:38:40;;;;;;;3.60;1.40;;;;;;;22.66;100.00;99310.21;104287;1281;61311;-70
2022/08/31 11:41:10;;;;;;;2.70;1.20;;;;;;;22.69;100.00;99309.86;104506;1279;62702;-72
2022/08/31 11:43:44;;;;;;;3.20;1.40;;;;;;;22.59;100.00;99305.70;104481;1278;76302;-72